sensor_id;sensor_type;location;lat;lon;timestamp;temperature;humidity
12771;DHT22;6449;47.666;9.160;2024-02-21T00:04:46;3.80;99.90
12771;DHT22;6449;47.666;9.160;2024-02-21T00:09:40;3.80;99.90
12771;DHT22;6449;47.666;9.160;2024-02-21T00:14:35;3.80;99.90
12771;DHT22;6449;47.666;9.160;2024-02-21T00:19:31;3.90;99.90
12771;DHT22;6449;47.666;9.160;2024-02-21T00:24:25;3.80;99.90
12771;DHT22;6449;47.666;9.160;2024-02-21T00:29:18;3.90;99.90
12771;DHT22;6449;47.666;9.160;2024-02-21T00:34:15;4.00;99.90
12771;DHT22;6449;47.666;9.160;2024-02-21T00:39:10;3.90;99.90
12771;DHT22;6449;47.666;9.160;2024-02-21T00:44:03;3.90;99.90
12771;DHT22;6449;47.666;9.160;2024-02-21T00:49:01;3.80;99.90
12771;DHT22;6449;47.666;9.160;2024-02-21T00:53:54;3.80;99.90
12771;DHT22;6449;47.666;9.160;2024-02-21T00:58:49;3.60;99.90
12771;DHT22;6449;47.666;9.160;2024-02-21T01:03:52;3.60;99.90
12771;DHT22;6449;47.666;9.160;2024-02-21T01:08:52;3.60;99.90
12771;DHT22;6449;47.666;9.160;2024-02-21T01:13:49;3.70;99.90
12771;DHT22;6449;47.666;9.160;2024-02-21T01:18:42;3.90;99.90
12771;DHT22;6449;47.666;9.160;2024-02-21T01:23:37;3.80;99.90
12771;DHT22;6449;47.666;9.160;2024-02-21T01:28:30;3.50;99.90
12771;DHT22;6449;47.666;9.160;2024-02-21T01:33:25;3.20;99.90
12771;DHT22;6449;47.666;9.160;2024-02-21T01:38:19;3.20;99.90
12771;DHT22;6449;47.666;9.160;2024-02-21T01:43:20;3.40;99.90
12771;DHT22;6449;47.666;9.160;2024-02-21T01:48:14;3.40;99.90
12771;DHT22;6449;47.666;9.160;2024-02-21T01:53:12;3.30;99.90
12771;DHT22;6449;47.666;9.160;2024-02-21T01:58:10;3.40;99.90
12771;DHT22;6449;47.666;9.160;2024-02-21T02:03:04;3.60;99.90
12771;DHT22;6449;47.666;9.160;2024-02-21T02:07:58;3.80;99.90
12771;DHT22;6449;47.666;9.160;2024-02-21T02:12:54;3.60;99.90
12771;DHT22;6449;47.666;9.160;2024-02-21T02:17:47;3.70;99.90
12771;DHT22;6449;47.666;9.160;2024-02-21T02:22:42;3.80;99.90
12771;DHT22;6449;47.666;9.160;2024-02-21T02:27:44;3.60;99.90
12771;DHT22;6449;47.666;9.160;2024-02-21T02:32:38;3.50;99.90
12771;DHT22;6449;47.666;9.160;2024-02-21T02:37:31;3.50;99.90
12771;DHT22;6449;47.666;9.160;2024-02-21T02:42:25;3.60;99.90
12771;DHT22;6449;47.666;9.160;2024-02-21T02:47:22;3.50;99.90
12771;DHT22;6449;47.666;9.160;2024-02-21T02:52:18;3.50;99.90
12771;DHT22;6449;47.666;9.160;2024-02-21T02:57:12;3.60;99.90
12771;DHT22;6449;47.666;9.160;2024-02-21T03:02:06;3.60;99.90
12771;DHT22;6449;47.666;9.160;2024-02-21T03:07:01;3.50;99.90
12771;DHT22;6449;47.666;9.160;2024-02-21T03:11:54;3.40;99.90
12771;DHT22;6449;47.666;9.160;2024-02-21T03:16:54;3.40;99.90
12771;DHT22;6449;47.666;9.160;2024-02-21T03:21:48;3.50;99.90
12771;DHT22;6449;47.666;9.160;2024-02-21T03:26:43;3.60;99.90
12771;DHT22;6449;47.666;9.160;2024-02-21T03:31:38;3.50;99.90
12771;DHT22;6449;47.666;9.160;2024-02-21T03:36:34;3.60;99.90
12771;DHT22;6449;47.666;9.160;2024-02-21T03:41:27;3.70;99.90
12771;DHT22;6449;47.666;9.160;2024-02-21T03:46:24;3.40;99.90
12771;DHT22;6449;47.666;9.160;2024-02-21T03:51:18;3.50;99.90
12771;DHT22;6449;47.666;9.160;2024-02-21T03:56:12;3.60;99.90
12771;DHT22;6449;47.666;9.160;2024-02-21T04:01:05;3.60;99.90
12771;DHT22;6449;47.666;9.160;2024-02-21T04:06:00;3.50;99.90
12771;DHT22;6449;47.666;9.160;2024-02-21T04:10:54;3.60;99.90
12771;DHT22;6449;47.666;9.160;2024-02-21T04:15:47;3.70;99.90
12771;DHT22;6449;47.666;9.160;2024-02-21T04:20:41;3.70;99.90
12771;DHT22;6449;47.666;9.160;2024-02-21T04:25:36;3.80;99.90
12771;DHT22;6449;47.666;9.160;2024-02-21T04:30:30;3.90;99.90
12771;DHT22;6449;47.666;9.160;2024-02-21T04:35:24;4.00;99.90
12771;DHT22;6449;47.666;9.160;2024-02-21T04:40:17;4.00;99.90
12771;DHT22;6449;47.666;9.160;2024-02-21T04:45:12;3.90;99.90
12771;DHT22;6449;47.666;9.160;2024-02-21T04:50:07;3.80;99.90
12771;DHT22;6449;47.666;9.160;2024-02-21T04:55:00;3.60;99.90
12771;DHT22;6449;47.666;9.160;2024-02-21T04:59:54;3.60;99.90
12771;DHT22;6449;47.666;9.160;2024-02-21T05:04:49;3.60;99.90
12771;DHT22;6449;47.666;9.160;2024-02-21T05:09:43;3.50;99.90
12771;DHT22;6449;47.666;9.160;2024-02-21T05:14:36;3.60;99.90
12771;DHT22;6449;47.666;9.160;2024-02-21T05:19:30;3.60;99.90
12771;DHT22;6449;47.666;9.160;2024-02-21T05:24:27;3.70;99.90
12771;DHT22;6449;47.666;9.160;2024-02-21T05:29:21;3.60;99.90
12771;DHT22;6449;47.666;9.160;2024-02-21T05:34:15;3.40;99.90
12771;DHT22;6449;47.666;9.160;2024-02-21T05:39:08;3.30;99.90
12771;DHT22;6449;47.666;9.160;2024-02-21T05:44:04;3.20;99.90
12771;DHT22;6449;47.666;9.160;2024-02-21T05:48:57;3.40;99.90
12771;DHT22;6449;47.666;9.160;2024-02-21T05:53:53;3.50;99.90
12771;DHT22;6449;47.666;9.160;2024-02-21T05:58:46;3.50;99.90
12771;DHT22;6449;47.666;9.160;2024-02-21T06:03:41;3.50;99.90
12771;DHT22;6449;47.666;9.160;2024-02-21T06:08:35;3.20;99.90
12771;DHT22;6449;47.666;9.160;2024-02-21T06:13:28;3.00;99.90
12771;DHT22;6449;47.666;9.160;2024-02-21T06:18:22;2.90;99.90
12771;DHT22;6449;47.666;9.160;2024-02-21T06:23:18;3.00;99.90
12771;DHT22;6449;47.666;9.160;2024-02-21T06:28:12;3.20;99.90
12771;DHT22;6449;47.666;9.160;2024-02-21T06:33:05;3.40;99.90
12771;DHT22;6449;47.666;9.160;2024-02-21T06:37:59;3.40;99.90
12771;DHT22;6449;47.666;9.160;2024-02-21T06:42:56;3.40;99.90
12771;DHT22;6449;47.666;9.160;2024-02-21T06:47:53;3.30;99.90
12771;DHT22;6449;47.666;9.160;2024-02-21T06:52:47;3.10;99.90
12771;DHT22;6449;47.666;9.160;2024-02-21T06:57:41;3.10;99.90
12771;DHT22;6449;47.666;9.160;2024-02-21T07:02:36;3.30;99.90
12771;DHT22;6449;47.666;9.160;2024-02-21T07:07:32;3.20;99.90
12771;DHT22;6449;47.666;9.160;2024-02-21T07:12:27;3.00;99.90
12771;DHT22;6449;47.666;9.160;2024-02-21T07:17:21;3.20;99.90
12771;DHT22;6449;47.666;9.160;2024-02-21T07:22:20;3.40;99.90
12771;DHT22;6449;47.666;9.160;2024-02-21T07:27:19;3.50;99.90
12771;DHT22;6449;47.666;9.160;2024-02-21T07:37:06;3.70;99.90
12771;DHT22;6449;47.666;9.160;2024-02-21T07:42:04;3.90;99.90
12771;DHT22;6449;47.666;9.160;2024-02-21T07:46:58;3.90;99.90
12771;DHT22;6449;47.666;9.160;2024-02-21T07:51:52;4.10;99.90
12771;DHT22;6449;47.666;9.160;2024-02-21T07:57:22;4.20;99.90
12771;DHT22;6449;47.666;9.160;2024-02-21T08:02:16;4.40;99.90
12771;DHT22;6449;47.666;9.160;2024-02-21T08:07:10;4.50;99.90
12771;DHT22;6449;47.666;9.160;2024-02-21T08:12:04;4.40;99.90
12771;DHT22;6449;47.666;9.160;2024-02-21T08:17:00;4.50;99.90
12771;DHT22;6449;47.666;9.160;2024-02-21T08:21:54;4.50;99.90
12771;DHT22;6449;47.666;9.160;2024-02-21T08:31:56;4.50;99.90
12771;DHT22;6449;47.666;9.160;2024-02-21T08:41:58;4.60;99.90
12771;DHT22;6449;47.666;9.160;2024-02-21T08:51:59;4.70;99.90
12771;DHT22;6449;47.666;9.160;2024-02-21T08:56:54;4.90;99.90
12771;DHT22;6449;47.666;9.160;2024-02-21T09:06:59;5.10;99.90
12771;DHT22;6449;47.666;9.160;2024-02-21T09:11:53;5.20;99.90
12771;DHT22;6449;47.666;9.160;2024-02-21T09:16:47;5.40;99.90
12771;DHT22;6449;47.666;9.160;2024-02-21T09:21:41;5.30;99.90
12771;DHT22;6449;47.666;9.160;2024-02-21T09:26:35;5.40;99.90
12771;DHT22;6449;47.666;9.160;2024-02-21T09:31:29;5.50;99.90
12771;DHT22;6449;47.666;9.160;2024-02-21T09:36:23;5.60;99.90
12771;DHT22;6449;47.666;9.160;2024-02-21T09:41:17;5.70;99.90
12771;DHT22;6449;47.666;9.160;2024-02-21T09:46:19;5.80;99.90
12771;DHT22;6449;47.666;9.160;2024-02-21T09:56:33;5.90;99.90
12771;DHT22;6449;47.666;9.160;2024-02-21T10:01:28;6.00;99.90
12771;DHT22;6449;47.666;9.160;2024-02-21T10:06:26;6.20;99.90
12771;DHT22;6449;47.666;9.160;2024-02-21T10:11:25;6.20;99.90
12771;DHT22;6449;47.666;9.160;2024-02-21T10:16:19;6.40;99.90
12771;DHT22;6449;47.666;9.160;2024-02-21T10:21:15;6.50;99.90
12771;DHT22;6449;47.666;9.160;2024-02-21T10:26:10;6.70;99.90
12771;DHT22;6449;47.666;9.160;2024-02-21T10:31:04;6.80;99.90
12771;DHT22;6449;47.666;9.160;2024-02-21T10:36:07;6.80;99.90
12771;DHT22;6449;47.666;9.160;2024-02-21T10:41:06;7.00;99.90
12771;DHT22;6449;47.666;9.160;2024-02-21T10:46:02;7.20;99.90
12771;DHT22;6449;47.666;9.160;2024-02-21T10:51:03;7.20;99.90
12771;DHT22;6449;47.666;9.160;2024-02-21T10:56:16;7.20;99.90
12771;DHT22;6449;47.666;9.160;2024-02-21T11:01:16;7.20;99.90
12771;DHT22;6449;47.666;9.160;2024-02-21T11:06:12;7.40;99.90
12771;DHT22;6449;47.666;9.160;2024-02-21T11:11:08;7.50;99.90
12771;DHT22;6449;47.666;9.160;2024-02-21T11:16:25;7.70;99.90
12771;DHT22;6449;47.666;9.160;2024-02-21T11:21:19;7.80;99.90
12771;DHT22;6449;47.666;9.160;2024-02-21T11:26:19;7.80;99.90
12771;DHT22;6449;47.666;9.160;2024-02-21T11:31:14;7.90;99.90
12771;DHT22;6449;47.666;9.160;2024-02-21T11:36:08;8.00;99.90
12771;DHT22;6449;47.666;9.160;2024-02-21T11:41:03;8.00;99.90
12771;DHT22;6449;47.666;9.160;2024-02-21T11:46:04;8.10;99.90
12771;DHT22;6449;47.666;9.160;2024-02-21T11:50:58;8.20;99.90
12771;DHT22;6449;47.666;9.160;2024-02-21T11:55:52;8.20;99.90
12771;DHT22;6449;47.666;9.160;2024-02-21T12:00:47;8.40;99.90
12771;DHT22;6449;47.666;9.160;2024-02-21T12:05:50;8.50;99.90
12771;DHT22;6449;47.666;9.160;2024-02-21T12:10:46;8.50;99.90
12771;DHT22;6449;47.666;9.160;2024-02-21T12:15:47;8.60;99.90
12771;DHT22;6449;47.666;9.160;2024-02-21T12:20:41;8.60;99.90
12771;DHT22;6449;47.666;9.160;2024-02-21T12:25:39;8.70;99.90
12771;DHT22;6449;47.666;9.160;2024-02-21T12:30:32;8.80;99.90
12771;DHT22;6449;47.666;9.160;2024-02-21T12:35:28;8.90;99.90
12771;DHT22;6449;47.666;9.160;2024-02-21T12:40:24;9.00;99.90
12771;DHT22;6449;47.666;9.160;2024-02-21T12:45:19;9.00;99.90
12771;DHT22;6449;47.666;9.160;2024-02-21T12:50:14;9.10;99.90
12771;DHT22;6449;47.666;9.160;2024-02-21T12:55:08;9.20;99.90
12771;DHT22;6449;47.666;9.160;2024-02-21T13:00:07;9.10;99.90
12771;DHT22;6449;47.666;9.160;2024-02-21T13:05:05;9.20;99.90
12771;DHT22;6449;47.666;9.160;2024-02-21T13:10:00;9.20;99.90
12771;DHT22;6449;47.666;9.160;2024-02-21T13:14:53;9.10;99.90
12771;DHT22;6449;47.666;9.160;2024-02-21T13:19:47;9.10;99.90
12771;DHT22;6449;47.666;9.160;2024-02-21T13:24:44;9.10;99.90
12771;DHT22;6449;47.666;9.160;2024-02-21T13:29:39;9.00;99.90
12771;DHT22;6449;47.666;9.160;2024-02-21T13:34:32;8.90;99.90
12771;DHT22;6449;47.666;9.160;2024-02-21T13:39:26;8.80;99.90
12771;DHT22;6449;47.666;9.160;2024-02-21T13:44:21;8.70;99.90
12771;DHT22;6449;47.666;9.160;2024-02-21T13:49:15;8.70;99.90
12771;DHT22;6449;47.666;9.160;2024-02-21T13:54:09;8.70;99.90
12771;DHT22;6449;47.666;9.160;2024-02-21T13:59:03;8.70;99.90
12771;DHT22;6449;47.666;9.160;2024-02-21T14:03:59;8.70;99.90
12771;DHT22;6449;47.666;9.160;2024-02-21T14:08:56;8.70;99.90
12771;DHT22;6449;47.666;9.160;2024-02-21T14:13:49;8.70;99.90
12771;DHT22;6449;47.666;9.160;2024-02-21T14:18:46;8.70;99.90
12771;DHT22;6449;47.666;9.160;2024-02-21T14:23:43;8.60;99.90
12771;DHT22;6449;47.666;9.160;2024-02-21T14:28:41;8.50;99.90
12771;DHT22;6449;47.666;9.160;2024-02-21T14:33:35;8.50;99.90
12771;DHT22;6449;47.666;9.160;2024-02-21T14:38:28;8.30;99.90
12771;DHT22;6449;47.666;9.160;2024-02-21T14:43:28;8.30;99.90
12771;DHT22;6449;47.666;9.160;2024-02-21T14:48:22;8.40;99.90
12771;DHT22;6449;47.666;9.160;2024-02-21T14:53:15;8.40;99.90
12771;DHT22;6449;47.666;9.160;2024-02-21T14:58:11;8.40;99.90
12771;DHT22;6449;47.666;9.160;2024-02-21T15:03:06;8.40;99.90
12771;DHT22;6449;47.666;9.160;2024-02-21T15:08:00;8.40;99.90
12771;DHT22;6449;47.666;9.160;2024-02-21T15:12:54;8.30;99.90
12771;DHT22;6449;47.666;9.160;2024-02-21T15:17:49;8.30;99.90
12771;DHT22;6449;47.666;9.160;2024-02-21T15:22:48;8.40;99.90
12771;DHT22;6449;47.666;9.160;2024-02-21T15:27:42;8.30;99.90
12771;DHT22;6449;47.666;9.160;2024-02-21T15:32:36;8.30;99.90
12771;DHT22;6449;47.666;9.160;2024-02-21T15:37:32;8.20;99.90
12771;DHT22;6449;47.666;9.160;2024-02-21T15:42:28;8.10;99.90
12771;DHT22;6449;47.666;9.160;2024-02-21T15:47:26;8.10;99.90
12771;DHT22;6449;47.666;9.160;2024-02-21T15:52:20;8.10;99.90
12771;DHT22;6449;47.666;9.160;2024-02-21T15:57:14;8.00;99.90
12771;DHT22;6449;47.666;9.160;2024-02-21T16:02:11;8.00;99.90
12771;DHT22;6449;47.666;9.160;2024-02-21T16:07:05;7.90;99.90
12771;DHT22;6449;47.666;9.160;2024-02-21T16:11:59;7.80;99.90
12771;DHT22;6449;47.666;9.160;2024-02-21T16:16:57;7.70;99.90
12771;DHT22;6449;47.666;9.160;2024-02-21T16:21:54;7.60;99.90
12771;DHT22;6449;47.666;9.160;2024-02-21T16:26:48;7.50;99.90
12771;DHT22;6449;47.666;9.160;2024-02-21T16:31:46;7.40;99.90
12771;DHT22;6449;47.666;9.160;2024-02-21T16:36:41;7.40;99.90
12771;DHT22;6449;47.666;9.160;2024-02-21T16:41:36;7.40;99.90
12771;DHT22;6449;47.666;9.160;2024-02-21T16:46:29;7.40;99.90
12771;DHT22;6449;47.666;9.160;2024-02-21T16:51:23;7.30;99.90
12771;DHT22;6449;47.666;9.160;2024-02-21T16:56:16;7.30;99.90
12771;DHT22;6449;47.666;9.160;2024-02-21T17:01:13;7.30;99.90
12771;DHT22;6449;47.666;9.160;2024-02-21T17:06:08;7.20;99.90
12771;DHT22;6449;47.666;9.160;2024-02-21T17:11:09;7.20;99.90
12771;DHT22;6449;47.666;9.160;2024-02-21T17:16:05;7.20;99.90
12771;DHT22;6449;47.666;9.160;2024-02-21T17:21:02;7.20;99.90
12771;DHT22;6449;47.666;9.160;2024-02-21T17:25:59;7.20;99.90
12771;DHT22;6449;47.666;9.160;2024-02-21T17:30:53;7.20;99.90
12771;DHT22;6449;47.666;9.160;2024-02-21T17:35:49;7.20;99.90
12771;DHT22;6449;47.666;9.160;2024-02-21T17:40:47;7.20;99.90
12771;DHT22;6449;47.666;9.160;2024-02-21T17:45:43;7.20;99.90
12771;DHT22;6449;47.666;9.160;2024-02-21T17:50:36;7.20;99.90
12771;DHT22;6449;47.666;9.160;2024-02-21T17:55:31;7.20;99.90
12771;DHT22;6449;47.666;9.160;2024-02-21T18:00:30;7.20;99.90
12771;DHT22;6449;47.666;9.160;2024-02-21T18:05:23;7.20;99.90
12771;DHT22;6449;47.666;9.160;2024-02-21T18:10:17;7.10;99.90
12771;DHT22;6449;47.666;9.160;2024-02-21T18:15:11;7.20;99.90
12771;DHT22;6449;47.666;9.160;2024-02-21T18:20:10;7.20;99.90
12771;DHT22;6449;47.666;9.160;2024-02-21T18:25:07;7.20;99.90
12771;DHT22;6449;47.666;9.160;2024-02-21T18:30:08;7.20;99.90
12771;DHT22;6449;47.666;9.160;2024-02-21T18:35:02;7.20;99.90
12771;DHT22;6449;47.666;9.160;2024-02-21T18:39:57;7.20;99.90
12771;DHT22;6449;47.666;9.160;2024-02-21T18:44:51;7.20;99.90
12771;DHT22;6449;47.666;9.160;2024-02-21T18:49:46;7.20;99.90
12771;DHT22;6449;47.666;9.160;2024-02-21T18:54:39;7.20;99.90
12771;DHT22;6449;47.666;9.160;2024-02-21T18:59:37;7.20;99.90
12771;DHT22;6449;47.666;9.160;2024-02-21T19:04:30;7.20;99.90
12771;DHT22;6449;47.666;9.160;2024-02-21T19:09:33;7.20;99.90
12771;DHT22;6449;47.666;9.160;2024-02-21T19:14:27;7.10;99.90
12771;DHT22;6449;47.666;9.160;2024-02-21T19:19:22;7.10;99.90
12771;DHT22;6449;47.666;9.160;2024-02-21T19:24:16;7.10;99.90
12771;DHT22;6449;47.666;9.160;2024-02-21T19:29:10;7.10;99.90
12771;DHT22;6449;47.666;9.160;2024-02-21T19:34:03;7.00;99.90
12771;DHT22;6449;47.666;9.160;2024-02-21T19:39:01;7.00;99.90
12771;DHT22;6449;47.666;9.160;2024-02-21T19:43:55;7.00;99.90
12771;DHT22;6449;47.666;9.160;2024-02-21T19:48:49;7.00;99.90
12771;DHT22;6449;47.666;9.160;2024-02-21T19:53:43;7.00;99.90
12771;DHT22;6449;47.666;9.160;2024-02-21T19:58:37;7.00;99.90
12771;DHT22;6449;47.666;9.160;2024-02-21T20:03:31;7.00;99.90
12771;DHT22;6449;47.666;9.160;2024-02-21T20:08:25;7.00;99.90
12771;DHT22;6449;47.666;9.160;2024-02-21T20:13:18;7.10;99.90
12771;DHT22;6449;47.666;9.160;2024-02-21T20:18:14;7.00;99.90
12771;DHT22;6449;47.666;9.160;2024-02-21T20:23:07;7.10;99.90
12771;DHT22;6449;47.666;9.160;2024-02-21T20:28:07;7.10;99.90
12771;DHT22;6449;47.666;9.160;2024-02-21T20:33:04;7.10;99.90
12771;DHT22;6449;47.666;9.160;2024-02-21T20:38:02;7.10;99.90
12771;DHT22;6449;47.666;9.160;2024-02-21T20:42:57;7.00;99.90
12771;DHT22;6449;47.666;9.160;2024-02-21T20:47:54;7.00;99.90
12771;DHT22;6449;47.666;9.160;2024-02-21T20:52:47;7.10;99.90
12771;DHT22;6449;47.666;9.160;2024-02-21T20:57:42;7.10;99.90
12771;DHT22;6449;47.666;9.160;2024-02-21T21:02:38;7.10;99.90
12771;DHT22;6449;47.666;9.160;2024-02-21T21:07:33;7.10;99.90
12771;DHT22;6449;47.666;9.160;2024-02-21T21:12:26;7.10;99.90
12771;DHT22;6449;47.666;9.160;2024-02-21T21:17:21;7.10;99.90
12771;DHT22;6449;47.666;9.160;2024-02-21T21:22:15;7.10;99.90
12771;DHT22;6449;47.666;9.160;2024-02-21T21:27:09;7.10;99.90
12771;DHT22;6449;47.666;9.160;2024-02-21T21:32:06;7.10;99.90
12771;DHT22;6449;47.666;9.160;2024-02-21T21:37:04;7.10;99.90
12771;DHT22;6449;47.666;9.160;2024-02-21T21:41:57;7.10;99.90
12771;DHT22;6449;47.666;9.160;2024-02-21T21:46:55;7.10;99.90
12771;DHT22;6449;47.666;9.160;2024-02-21T21:51:48;7.20;99.90
12771;DHT22;6449;47.666;9.160;2024-02-21T21:56:43;7.10;99.90
12771;DHT22;6449;47.666;9.160;2024-02-21T22:01:37;7.10;99.90
12771;DHT22;6449;47.666;9.160;2024-02-21T22:06:31;7.10;99.90
12771;DHT22;6449;47.666;9.160;2024-02-21T22:11:24;7.10;99.90
12771;DHT22;6449;47.666;9.160;2024-02-21T22:16:20;7.20;99.90
12771;DHT22;6449;47.666;9.160;2024-02-21T22:21:16;7.20;99.90
12771;DHT22;6449;47.666;9.160;2024-02-21T22:26:10;7.20;99.90
12771;DHT22;6449;47.666;9.160;2024-02-21T22:31:04;7.20;99.90
12771;DHT22;6449;47.666;9.160;2024-02-21T22:36:03;7.20;99.90
12771;DHT22;6449;47.666;9.160;2024-02-21T22:40:59;7.20;99.90
12771;DHT22;6449;47.666;9.160;2024-02-21T22:45:52;7.20;99.90
12771;DHT22;6449;47.666;9.160;2024-02-21T22:50:48;7.10;99.90
12771;DHT22;6449;47.666;9.160;2024-02-21T22:55:43;7.20;99.90
12771;DHT22;6449;47.666;9.160;2024-02-21T23:00:36;7.20;99.90
12771;DHT22;6449;47.666;9.160;2024-02-21T23:05:30;7.20;99.90
12771;DHT22;6449;47.666;9.160;2024-02-21T23:10:25;7.20;99.90
12771;DHT22;6449;47.666;9.160;2024-02-21T23:15:20;7.20;99.90
12771;DHT22;6449;47.666;9.160;2024-02-21T23:20:14;7.20;99.90
12771;DHT22;6449;47.666;9.160;2024-02-21T23:25:09;7.30;99.90
12771;DHT22;6449;47.666;9.160;2024-02-21T23:30:07;7.30;99.90
12771;DHT22;6449;47.666;9.160;2024-02-21T23:35:07;7.50;99.90
12771;DHT22;6449;47.666;9.160;2024-02-21T23:40:01;7.60;99.90
12771;DHT22;6449;47.666;9.160;2024-02-21T23:44:55;7.70;99.90
12771;DHT22;6449;47.666;9.160;2024-02-21T23:49:50;8.00;99.90
12771;DHT22;6449;47.666;9.160;2024-02-21T23:54:45;8.10;99.90
12771;DHT22;6449;47.666;9.160;2024-02-21T23:59:38;8.20;99.90
